createdAt,value
2018-04-11T00:00:23.649Z,961.09
2018-04-11T00:01:23.653Z,961.09
2018-04-11T00:02:23.698Z,961.10
2018-04-11T00:03:23.745Z,961.11
2018-04-11T00:04:23.788Z,961.13
2018-04-11T00:05:23.860Z,961.14
2018-04-11T00:06:23.902Z,961.14
2018-04-11T00:07:23.937Z,961.15
2018-04-11T00:08:23.968Z,961.16
2018-04-11T00:09:24.013Z,961.10
2018-04-11T00:10:24.060Z,961.14
2018-04-11T00:11:24.131Z,961.12
2018-04-11T00:12:24.175Z,961.14
2018-04-11T00:13:24.847Z,961.16
2018-04-11T00:14:24.841Z,961.16
2018-04-11T00:15:24.287Z,961.15
2018-04-11T00:16:24.354Z,961.12
2018-04-11T00:17:24.386Z,961.10
2018-04-11T00:18:24.429Z,961.08
2018-04-11T00:19:24.467Z,961.03
2018-04-11T00:20:24.527Z,961.02
2018-04-11T00:21:24.589Z,961.06
2018-04-11T00:22:24.603Z,961.11
2018-04-11T00:23:24.655Z,961.13
2018-04-11T00:24:24.693Z,961.17
2018-04-11T00:25:24.741Z,961.17
2018-04-11T00:26:24.818Z,961.12
2018-04-11T00:27:24.829Z,961.10
2018-04-11T00:28:24.871Z,961.09
2018-04-11T00:29:24.915Z,961.09
2018-04-11T00:30:24.968Z,961.08
2018-04-11T00:31:25.028Z,961.10
2018-04-11T00:32:25.087Z,961.13
2018-04-11T00:33:25.091Z,961.14
2018-04-11T00:34:25.137Z,961.13
2018-04-11T00:35:25.840Z,961.12
2018-04-11T00:36:25.224Z,961.07
2018-04-11T00:37:25.294Z,961.10
2018-04-11T00:38:25.316Z,961.10
2018-04-11T00:39:25.359Z,961.07
2018-04-11T00:40:25.400Z,961.04
2018-04-11T00:41:25.450Z,961.07
2018-04-11T00:42:25.516Z,961.06
2018-04-11T00:43:25.560Z,961.07
2018-04-11T00:44:25.584Z,961.05
2018-04-11T00:45:25.625Z,961.02
2018-04-11T00:46:25.680Z,961.02
2018-04-11T00:47:25.753Z,961.02
2018-04-11T00:48:25.761Z,960.96
2018-04-11T00:49:25.806Z,961.02
2018-04-11T00:50:25.849Z,960.98
2018-04-11T00:51:25.896Z,961.00
2018-04-11T00:52:25.976Z,960.93
2018-04-11T00:53:25.984Z,960.94
2018-04-11T00:54:26.027Z,960.95
2018-04-11T00:55:26.075Z,960.93
2018-04-11T00:56:26.121Z,960.95
2018-04-11T00:57:26.186Z,960.98
2018-04-11T00:58:26.206Z,960.95
2018-04-11T00:59:26.280Z,960.98
2018-04-11T01:00:26.294Z,960.97
2018-04-11T01:01:26.340Z,960.95
2018-04-11T01:02:26.384Z,960.92
2018-04-11T01:03:26.429Z,960.91
2018-04-11T01:04:26.498Z,960.90
2018-04-11T01:05:26.519Z,960.86
2018-04-11T01:06:26.564Z,960.87
2018-04-11T01:07:26.606Z,960.89
2018-04-11T01:08:26.656Z,960.88
2018-04-11T01:09:26.726Z,960.84
2018-04-11T01:10:26.738Z,960.89
2018-04-11T01:11:26.783Z,960.88
2018-04-11T01:12:26.827Z,960.90
2018-04-11T01:13:26.873Z,960.94
2018-04-11T01:14:26.939Z,960.97
2018-04-11T01:15:26.990Z,960.98
2018-04-11T01:16:27.008Z,960.96
2018-04-11T01:17:27.050Z,960.97
2018-04-11T01:18:27.097Z,960.98
2018-04-11T01:19:27.139Z,960.92
2018-04-11T01:20:27.220Z,960.93
2018-04-11T01:21:27.226Z,960.91
2018-04-11T01:22:27.272Z,960.90
2018-04-11T01:23:27.323Z,960.95
2018-04-11T01:24:27.361Z,960.95
2018-04-11T01:25:27.436Z,960.91
2018-04-11T01:26:27.455Z,960.91
2018-04-11T01:27:27.495Z,960.92
2018-04-11T01:28:27.540Z,960.87
2018-04-11T01:29:27.582Z,960.85
2018-04-11T01:30:27.652Z,960.85
2018-04-11T01:31:27.696Z,960.86
2018-04-11T01:32:27.725Z,960.84
2018-04-11T01:33:27.760Z,960.86
2018-04-11T01:34:27.806Z,960.82
2018-04-11T01:35:27.850Z,960.84
2018-04-11T01:36:27.917Z,960.85
2018-04-11T01:37:27.940Z,960.84
2018-04-11T01:38:27.988Z,960.83
2018-04-11T01:39:28.027Z,960.80
2018-04-11T01:40:28.068Z,960.80
2018-04-11T01:41:28.145Z,960.78
2018-04-11T01:42:28.158Z,960.75
2018-04-11T01:43:28.203Z,960.73
2018-04-11T01:44:28.245Z,960.76
2018-04-11T01:45:28.291Z,960.81
2018-04-11T01:46:28.366Z,960.75
2018-04-11T01:47:28.378Z,960.76
2018-04-11T01:48:28.422Z,960.75
2018-04-11T01:49:28.475Z,960.74
2018-04-11T01:50:28.511Z,960.73
2018-04-11T01:51:28.598Z,960.73
2018-04-11T01:52:28.604Z,960.76
2018-04-11T01:53:28.644Z,960.75
2018-04-11T01:54:28.693Z,960.75
2018-04-11T01:55:28.733Z,960.75
2018-04-11T01:56:28.802Z,960.77
2018-04-11T01:57:28.824Z,960.76
2018-04-11T01:58:28.888Z,960.76
2018-04-11T01:59:28.911Z,960.78
2018-04-11T02:00:28.959Z,960.78
2018-04-11T02:01:28.999Z,960.81
2018-04-11T02:02:29.042Z,960.72
2018-04-11T02:03:29.111Z,960.78
2018-04-11T02:04:29.131Z,960.75
2018-04-11T02:05:29.175Z,960.78
2018-04-11T02:06:29.229Z,960.77
2018-04-11T02:07:29.270Z,960.76
2018-04-11T02:08:29.341Z,960.75
2018-04-11T02:09:29.351Z,960.74
2018-04-11T02:10:29.396Z,960.85
2018-04-11T02:11:29.441Z,960.78
2018-04-11T02:12:29.485Z,960.77
2018-04-11T02:13:29.555Z,960.80
2018-04-11T02:14:29.607Z,960.78
2018-04-11T02:15:29.616Z,960.77
2018-04-11T02:16:29.661Z,960.79
2018-04-11T02:17:29.705Z,960.80
2018-04-11T02:18:29.749Z,960.81
2018-04-11T02:19:29.823Z,960.84
2018-04-11T02:20:29.837Z,960.81
2018-04-11T02:21:29.879Z,960.81
2018-04-11T02:22:29.924Z,960.79
2018-04-11T02:23:29.971Z,960.84
2018-04-11T02:24:30.052Z,960.86
2018-04-11T02:25:30.057Z,960.87
2018-04-11T02:26:30.104Z,960.87
2018-04-11T02:27:30.151Z,960.85
2018-04-11T02:28:30.188Z,960.86
2018-04-11T02:29:30.257Z,960.90
2018-04-11T02:30:30.308Z,960.95
2018-04-11T02:31:30.322Z,960.90
2018-04-11T02:32:30.364Z,960.92
2018-04-11T02:33:30.409Z,960.94
2018-04-11T02:34:30.456Z,960.93
2018-04-11T02:35:30.523Z,960.93
2018-04-11T02:36:30.541Z,960.95
2018-04-11T02:37:30.590Z,960.96
2018-04-11T02:38:30.632Z,960.94
2018-04-11T02:39:30.675Z,960.97
2018-04-11T02:40:30.741Z,960.98
2018-04-11T02:41:30.761Z,960.96
2018-04-11T02:42:30.812Z,960.96
2018-04-11T02:43:30.853Z,960.93
2018-04-11T02:44:30.895Z,960.88
2018-04-11T02:45:30.964Z,960.94
2018-04-11T02:46:31.016Z,960.88
2018-04-11T02:47:31.835Z,960.90
2018-04-11T02:48:31.076Z,960.91
2018-04-11T02:49:31.113Z,960.97
2018-04-11T02:50:31.157Z,960.97
2018-04-11T02:51:31.227Z,960.95
2018-04-11T02:52:31.244Z,960.95
2018-04-11T02:53:31.289Z,960.91
2018-04-11T02:54:31.335Z,960.92
2018-04-11T02:55:31.376Z,960.90
2018-04-11T02:56:31.443Z,960.89
2018-04-11T02:57:31.486Z,960.89
2018-04-11T02:58:31.507Z,960.90
2018-04-11T02:59:31.553Z,960.89
2018-04-11T03:00:31.603Z,960.88
2018-04-11T03:01:31.640Z,960.89
2018-04-11T03:02:31.708Z,960.87
2018-04-11T03:03:31.727Z,960.84
2018-04-11T03:04:31.769Z,960.83
2018-04-11T03:05:31.814Z,960.83
2018-04-11T03:06:31.857Z,960.85
2018-04-11T03:07:31.963Z,960.81
2018-04-11T03:08:31.944Z,960.84
2018-04-11T03:09:31.990Z,960.84
2018-04-11T03:10:32.034Z,960.83
2018-04-11T03:11:32.079Z,960.86
2018-04-11T03:12:32.144Z,960.85
2018-04-11T03:13:32.166Z,960.89
2018-04-11T03:14:32.208Z,960.90
2018-04-11T03:15:32.252Z,960.87
2018-04-11T03:16:32.296Z,960.89
2018-04-11T03:17:32.373Z,960.89
2018-04-11T03:18:32.383Z,960.86
2018-04-11T03:19:32.428Z,960.86
2018-04-11T03:20:32.471Z,960.81
2018-04-11T03:21:32.512Z,960.83
2018-04-11T03:22:32.590Z,960.87
2018-04-11T03:23:32.628Z,960.88
2018-04-11T03:24:32.644Z,960.88
2018-04-11T03:25:32.686Z,960.91
2018-04-11T03:26:32.730Z,960.92
2018-04-11T03:27:32.773Z,960.91
2018-04-11T03:28:32.856Z,960.92
2018-04-11T03:29:32.861Z,960.92
2018-04-11T03:30:32.908Z,960.89
2018-04-11T03:31:32.948Z,960.90
2018-04-11T03:32:32.991Z,960.89
2018-04-11T03:33:33.084Z,960.92
2018-04-11T03:34:33.112Z,960.90
2018-04-11T03:35:33.121Z,960.86
2018-04-11T03:36:33.170Z,960.92
2018-04-11T03:37:33.208Z,960.91
2018-04-11T03:38:33.256Z,960.91
2018-04-11T03:39:33.324Z,960.95
2018-04-11T03:40:33.340Z,960.93
2018-04-11T03:41:33.388Z,960.93
2018-04-11T03:42:33.427Z,960.97
2018-04-11T03:43:33.470Z,960.95
2018-04-11T03:44:33.537Z,960.92
2018-04-11T03:45:33.557Z,960.94
2018-04-11T03:46:33.602Z,960.95
2018-04-11T03:47:33.647Z,960.92
2018-04-11T03:48:33.694Z,960.89
2018-04-11T03:49:33.756Z,960.93
2018-04-11T03:50:33.779Z,960.93
2018-04-11T03:51:33.820Z,960.90
2018-04-11T03:52:33.862Z,960.94
2018-04-11T03:53:33.908Z,960.89
2018-04-11T03:54:33.983Z,960.92
2018-04-11T03:55:33.997Z,960.92
2018-04-11T03:56:34.037Z,960.87
2018-04-11T03:57:34.085Z,960.88
2018-04-11T03:58:34.123Z,960.83
2018-04-11T03:59:34.210Z,960.87
2018-04-11T04:00:34.211Z,960.81
2018-04-11T04:01:34.264Z,960.84
2018-04-11T04:02:34.297Z,960.79
2018-04-11T04:03:34.342Z,960.77
2018-04-11T04:04:34.407Z,960.81
2018-04-11T04:05:34.429Z,960.81
2018-04-11T04:06:34.504Z,960.81
2018-04-11T04:07:34.541Z,960.78
2018-04-11T04:08:34.559Z,960.82
2018-04-11T04:09:34.605Z,960.79
2018-04-11T04:10:34.645Z,960.80
2018-04-11T04:11:34.714Z,960.75
2018-04-11T04:12:34.734Z,960.78
2018-04-11T04:13:34.776Z,960.77
2018-04-11T04:14:34.821Z,960.76
2018-04-11T04:15:34.864Z,960.78
2018-04-11T04:16:34.941Z,960.77
2018-04-11T04:17:34.956Z,960.76
2018-04-11T04:18:34.997Z,960.73
2018-04-11T04:19:35.041Z,960.81
2018-04-11T04:20:35.091Z,960.79
2018-04-11T04:21:35.149Z,960.78
2018-04-11T04:22:35.169Z,960.80
2018-04-11T04:23:35.212Z,960.74
2018-04-11T04:24:35.257Z,960.78
2018-04-11T04:25:35.299Z,960.79
2018-04-11T04:26:35.373Z,960.76
2018-04-11T04:27:35.388Z,960.77
2018-04-11T04:28:35.434Z,960.81
2018-04-11T04:29:35.472Z,960.78
2018-04-11T04:30:35.520Z,960.78
2018-04-11T04:31:35.601Z,960.79
2018-04-11T04:32:35.612Z,960.76
2018-04-11T04:33:35.648Z,960.74
2018-04-11T04:34:35.689Z,960.75
2018-04-11T04:35:35.733Z,960.79
2018-04-11T04:36:35.802Z,960.79
2018-04-11T04:37:35.848Z,960.79
2018-04-11T04:38:35.867Z,960.86
2018-04-11T04:39:35.915Z,960.83
2018-04-11T04:40:35.952Z,960.83
2018-04-11T04:41:35.996Z,960.81
2018-04-11T04:42:36.062Z,960.83
2018-04-11T04:43:36.104Z,960.85
2018-04-11T04:44:36.127Z,960.86
2018-04-11T04:45:36.168Z,960.86
2018-04-11T04:46:36.215Z,960.88
2018-04-11T04:47:36.295Z,960.85
2018-04-11T04:48:36.297Z,960.86
2018-04-11T04:49:36.342Z,960.89
2018-04-11T04:50:36.383Z,960.89
2018-04-11T04:51:36.428Z,960.90
2018-04-11T04:52:36.498Z,960.92
2018-04-11T04:53:36.513Z,960.88
2018-04-11T04:54:36.559Z,960.88
2018-04-11T04:55:36.601Z,960.91
2018-04-11T04:56:36.642Z,960.88
2018-04-11T04:57:36.716Z,960.91
2018-04-11T04:58:36.731Z,960.93
2018-04-11T04:59:36.777Z,960.94
2018-04-11T05:00:36.818Z,960.96
2018-04-11T05:01:36.859Z,960.98
2018-04-11T05:02:36.945Z,961.02
2018-04-11T05:03:36.949Z,961.00
2018-04-11T05:04:36.989Z,961.01
2018-04-11T05:05:37.032Z,961.02
2018-04-11T05:06:37.075Z,961.04
2018-04-11T05:07:37.205Z,961.03
2018-04-11T05:08:37.163Z,961.03
2018-04-11T05:09:37.210Z,961.05
2018-04-11T05:10:37.250Z,961.09
2018-04-11T05:11:37.294Z,961.08
2018-04-11T05:12:37.368Z,961.11
2018-04-11T05:13:37.382Z,961.05
2018-04-11T05:14:37.423Z,961.07
2018-04-11T05:15:37.497Z,961.06
2018-04-11T05:16:37.508Z,961.06
2018-04-11T05:17:37.551Z,961.07
2018-04-11T05:18:37.602Z,961.10
2018-04-11T05:19:37.640Z,961.07
2018-04-11T05:20:37.717Z,961.07
2018-04-11T05:21:37.729Z,961.05
2018-04-11T05:22:37.773Z,961.02
2018-04-11T05:23:37.817Z,961.06
2018-04-11T05:24:37.855Z,961.04
2018-04-11T05:25:37.924Z,961.07
2018-04-11T05:26:37.943Z,961.05
2018-04-11T05:27:37.986Z,961.03
2018-04-11T05:28:38.030Z,961.02
2018-04-11T05:29:38.098Z,961.00
2018-04-11T05:30:38.119Z,961.04
2018-04-11T05:31:38.184Z,961.05
2018-04-11T05:32:38.240Z,961.06
2018-04-11T05:33:38.247Z,961.08
2018-04-11T05:34:38.298Z,961.06
2018-04-11T05:35:38.361Z,961.08
2018-04-11T05:36:38.404Z,961.08
2018-04-11T05:37:38.424Z,961.08
2018-04-11T05:38:38.468Z,961.10
2018-04-11T05:39:38.509Z,961.10
2018-04-11T05:40:38.552Z,961.10
2018-04-11T05:41:38.629Z,961.13
2018-04-11T05:42:38.640Z,961.16
2018-04-11T05:43:38.690Z,961.13
2018-04-11T05:44:38.726Z,961.12
2018-04-11T05:45:38.778Z,961.13
2018-04-11T05:46:38.849Z,961.15
2018-04-11T05:47:38.860Z,961.16
2018-04-11T05:48:38.907Z,961.13
2018-04-11T05:49:38.948Z,961.14
2018-04-11T05:50:39.000Z,961.11
2018-04-11T05:51:39.060Z,961.12
2018-04-11T05:52:39.102Z,961.08
2018-04-11T05:53:39.122Z,961.06
2018-04-11T05:54:39.172Z,961.01
2018-04-11T05:55:39.209Z,961.00
2018-04-11T05:56:39.258Z,961.01
2018-04-11T05:57:39.321Z,961.03
2018-04-11T05:58:39.342Z,961.02
2018-04-11T05:59:39.385Z,961.06
2018-04-11T06:00:39.428Z,961.05
2018-04-11T06:01:39.475Z,961.08
2018-04-11T06:02:39.550Z,961.09
2018-04-11T06:03:39.561Z,961.07
2018-04-11T06:04:39.606Z,961.11
2018-04-11T06:05:39.653Z,961.15
2018-04-11T06:06:39.695Z,961.14
2018-04-11T06:07:39.777Z,961.10
2018-04-11T06:08:39.781Z,961.13
2018-04-11T06:09:39.829Z,961.11
2018-04-11T06:10:39.871Z,961.10
2018-04-11T06:11:39.960Z,961.07
2018-04-11T06:12:39.985Z,961.07
2018-04-11T06:13:40.028Z,961.08
2018-04-11T06:14:40.049Z,961.03
2018-04-11T06:15:40.094Z,961.02
2018-04-11T06:16:40.139Z,960.99
2018-04-11T06:17:40.182Z,960.93
2018-04-11T06:18:40.250Z,960.93
2018-04-11T06:19:40.271Z,960.94
2018-04-11T06:20:40.320Z,960.94
2018-04-11T06:21:40.369Z,960.95
2018-04-11T06:22:40.411Z,960.94
2018-04-11T06:23:40.660Z,961.00
2018-04-11T06:24:40.493Z,961.01
2018-04-11T06:25:41.119Z,961.04
2018-04-11T06:26:40.586Z,961.08
2018-04-11T06:27:40.630Z,961.11
2018-04-11T06:28:40.697Z,961.13
2018-04-11T06:29:40.748Z,961.10
2018-04-11T06:30:40.763Z,961.08
2018-04-11T06:31:40.813Z,961.07
2018-04-11T06:32:40.854Z,961.07
2018-04-11T06:33:40.901Z,961.02
2018-04-11T06:34:40.975Z,961.04
2018-04-11T06:35:40.988Z,961.01
2018-04-11T06:36:41.033Z,961.02
2018-04-11T06:37:41.079Z,961.06
2018-04-11T06:38:41.126Z,961.02
2018-04-11T06:39:41.205Z,960.99
2018-04-11T06:40:41.223Z,960.97
2018-04-11T06:41:41.260Z,960.98
2018-04-11T06:42:41.310Z,960.97
2018-04-11T06:43:41.351Z,961.01
2018-04-11T06:44:41.426Z,961.02
2018-04-11T06:45:41.442Z,961.05
2018-04-11T06:46:41.488Z,961.04
2018-04-11T06:47:41.537Z,961.07
2018-04-11T06:48:41.579Z,961.07
2018-04-11T06:49:41.658Z,961.09
2018-04-11T06:50:41.699Z,961.13
2018-04-11T06:51:42.027Z,961.12
2018-04-11T06:52:41.811Z,961.14
2018-04-11T06:53:41.809Z,961.09
2018-04-11T06:54:41.897Z,961.14
2018-04-11T06:55:41.909Z,961.19
2018-04-11T06:56:41.951Z,961.18
2018-04-11T06:57:41.996Z,961.14
2018-04-11T06:58:42.044Z,961.13
2018-04-11T06:59:42.120Z,961.08
2018-04-11T07:00:42.137Z,961.04
2018-04-11T07:01:42.215Z,961.03
2018-04-11T07:02:42.232Z,961.01
2018-04-11T07:03:42.280Z,961.00
2018-04-11T07:04:42.326Z,960.98
2018-04-11T07:05:42.431Z,961.02
2018-04-11T07:06:42.450Z,960.98
2018-04-11T07:07:42.473Z,960.96
2018-04-11T07:08:42.520Z,960.95
2018-04-11T07:09:42.566Z,960.98
2018-04-11T07:10:42.616Z,960.97
2018-04-11T07:11:42.700Z,960.95
2018-04-11T07:12:42.720Z,960.94
2018-04-11T07:13:42.760Z,960.91
2018-04-11T07:14:42.811Z,960.94
2018-04-11T07:15:42.857Z,960.89
2018-04-11T07:16:42.949Z,960.90
2018-04-11T07:17:42.957Z,960.87
2018-04-11T07:18:43.006Z,960.85
2018-04-11T07:19:43.053Z,960.85
2018-04-11T07:20:43.102Z,960.89
2018-04-11T07:21:43.183Z,960.83
2018-04-11T07:22:43.200Z,960.80
2018-04-11T07:23:43.251Z,960.83
2018-04-11T07:24:43.299Z,960.82
2018-04-11T07:25:43.355Z,960.82
2018-04-11T07:26:43.445Z,960.81
2018-04-11T07:27:43.456Z,960.82
2018-04-11T07:28:43.503Z,960.84
2018-04-11T07:29:43.550Z,960.85
2018-04-11T07:30:43.600Z,960.85
2018-04-11T07:31:43.683Z,960.84
2018-04-11T07:32:43.697Z,960.84
2018-04-11T07:33:43.778Z,960.85
2018-04-11T07:34:43.799Z,960.85
2018-04-11T07:35:43.972Z,960.85
2018-04-11T07:36:43.922Z,960.85
2018-04-11T07:37:43.947Z,960.86
2018-04-11T07:38:44.020Z,960.85
2018-04-11T07:39:44.047Z,960.84
2018-04-11T07:40:44.103Z,960.87
2018-04-11T07:41:44.148Z,960.90
2018-04-11T07:42:44.220Z,960.87
2018-04-11T07:43:44.248Z,960.87
2018-04-11T07:44:44.303Z,960.89
2018-04-11T07:45:44.348Z,960.85
2018-04-11T07:46:44.395Z,960.87
2018-04-11T07:47:44.473Z,960.83
2018-04-11T07:48:44.500Z,960.83
2018-04-11T07:49:44.546Z,960.84
2018-04-11T07:50:44.625Z,960.82
2018-04-11T07:51:44.644Z,960.78
2018-04-11T07:52:44.719Z,960.78
2018-04-11T07:53:44.742Z,960.79
2018-04-11T07:54:44.792Z,960.79
2018-04-11T07:55:44.871Z,960.78
2018-04-11T07:56:44.890Z,960.75
2018-04-11T07:57:44.939Z,960.74
2018-04-11T07:58:44.989Z,960.71
2018-04-11T07:59:45.040Z,960.68
2018-04-11T08:00:45.127Z,960.67
2018-04-11T08:01:45.139Z,960.63
2018-04-11T08:02:45.190Z,960.62
2018-04-11T08:03:45.237Z,960.58
2018-04-11T08:04:45.285Z,960.58
2018-04-11T08:05:45.365Z,960.61
2018-04-11T08:06:45.383Z,960.59
2018-04-11T08:07:45.440Z,960.57
2018-04-11T08:08:45.483Z,960.57
2018-04-11T08:09:45.540Z,960.56
2018-04-11T08:10:45.608Z,960.50
2018-04-11T08:11:45.635Z,960.48
2018-04-11T08:12:45.683Z,960.51
2018-04-11T08:13:45.767Z,960.48
2018-04-11T08:14:45.805Z,960.49
2018-04-11T08:15:45.832Z,960.49
2018-04-11T08:16:45.921Z,960.46
2018-04-11T08:17:45.932Z,960.45
2018-04-11T08:18:45.988Z,960.46
2018-04-11T08:19:46.047Z,960.43
2018-04-11T08:20:46.081Z,960.46
2018-04-11T08:21:46.157Z,960.42
2018-04-11T08:22:46.194Z,960.42
2018-04-11T08:23:46.239Z,960.44
2018-04-11T08:24:46.321Z,960.42
2018-04-11T08:25:46.336Z,960.39
2018-04-11T08:26:46.385Z,960.40
2018-04-11T08:27:46.437Z,960.39
2018-04-11T08:28:46.487Z,960.41
2018-04-11T08:29:46.565Z,960.37
2018-04-11T08:30:46.587Z,960.36
2018-04-11T08:31:46.661Z,960.36
2018-04-11T08:32:46.713Z,960.33
2018-04-11T08:33:46.742Z,960.32
2018-04-11T08:34:46.787Z,960.35
2018-04-11T08:35:46.838Z,960.32
2018-04-11T08:36:46.890Z,960.30
2018-04-11T08:37:46.962Z,960.33
2018-04-11T08:38:46.992Z,960.32
2018-04-11T08:39:47.042Z,960.30
2018-04-11T08:40:47.091Z,960.37
2018-04-11T08:41:47.140Z,960.37
2018-04-11T08:42:47.217Z,960.32
2018-04-11T08:43:47.242Z,960.37
2018-04-11T08:44:47.293Z,960.35
2018-04-11T08:45:47.365Z,960.35
2018-04-11T08:46:47.393Z,960.33
2018-04-11T08:47:47.449Z,960.34
2018-04-11T08:48:47.519Z,960.29
2018-04-11T08:49:47.555Z,960.26
2018-04-11T08:50:47.598Z,960.29
2018-04-11T08:51:47.681Z,960.27
2018-04-11T08:52:47.698Z,960.28
2018-04-11T08:53:47.749Z,960.29
2018-04-11T08:54:47.799Z,960.26
2018-04-11T08:55:47.850Z,960.29
2018-04-11T08:56:47.929Z,960.28
2018-04-11T08:57:47.952Z,960.28
2018-04-11T08:58:48.001Z,960.25
2018-04-11T08:59:48.051Z,960.23
2018-04-11T09:00:48.100Z,960.22
2018-04-11T09:01:48.177Z,960.19
2018-04-11T09:02:48.203Z,960.23
2018-04-11T09:03:48.887Z,960.19
2018-04-11T09:04:48.339Z,960.19
2018-04-11T09:05:48.354Z,960.15
2018-04-11T09:06:48.403Z,960.14
2018-04-11T09:07:48.455Z,960.13
2018-04-11T09:08:48.507Z,960.17
2018-04-11T09:09:48.578Z,960.13
2018-04-11T09:10:48.615Z,960.11
2018-04-11T09:11:48.658Z,960.14
2018-04-11T09:12:48.738Z,960.13
2018-04-11T09:13:48.759Z,960.10
2018-04-11T09:14:48.815Z,960.09
2018-04-11T09:15:48.861Z,960.12
2018-04-11T09:16:48.944Z,960.10
2018-04-11T09:17:48.986Z,960.10
2018-04-11T09:18:49.015Z,960.12
2018-04-11T09:19:49.066Z,960.10
2018-04-11T09:20:49.130Z,960.06
2018-04-11T09:21:49.192Z,960.09
2018-04-11T09:22:49.220Z,960.05
2018-04-11T09:23:49.270Z,960.01
2018-04-11T09:24:49.321Z,960.01
2018-04-11T09:25:49.372Z,959.97
2018-04-11T09:26:49.449Z,959.94
2018-04-11T09:27:49.474Z,959.93
2018-04-11T09:28:49.526Z,959.89
2018-04-11T09:31:25.427Z,959.88
2018-04-11T09:32:25.447Z,959.84
2018-04-11T09:33:26.342Z,959.88
2018-04-11T09:34:25.600Z,959.84
2018-04-11T09:35:25.598Z,959.84
2018-04-11T09:36:25.688Z,959.83
2018-04-11T09:37:25.702Z,959.81
2018-04-11T09:38:25.770Z,959.78
2018-04-11T09:39:25.805Z,959.78
2018-04-11T09:40:25.858Z,959.78
2018-04-11T09:41:25.935Z,959.75
2018-04-11T09:42:25.967Z,959.71
2018-04-11T09:43:26.018Z,959.67
2018-04-11T09:44:26.093Z,959.65
2018-04-11T09:45:26.123Z,959.65
2018-04-11T09:46:26.180Z,959.63
2018-04-11T09:47:26.251Z,959.61
2018-04-11T09:48:26.277Z,959.59
2018-04-11T09:49:26.334Z,959.61
2018-04-11T09:50:26.423Z,959.54
2018-04-11T09:51:26.437Z,959.53
2018-04-11T09:52:26.491Z,959.49
2018-04-11T09:53:26.542Z,959.46
2018-04-11T09:54:26.595Z,959.47
2018-04-11T09:55:26.669Z,959.47
2018-04-11T09:56:26.701Z,959.43
2018-04-11T09:57:26.751Z,959.42
2018-04-11T09:58:26.877Z,959.41
2018-04-11T09:59:26.859Z,959.41
2018-04-11T10:00:26.943Z,959.47
2018-04-11T10:01:26.966Z,959.45
2018-04-11T10:02:27.024Z,959.46
2018-04-11T10:03:27.101Z,959.47
2018-04-11T10:04:27.120Z,959.48
2018-04-11T10:05:27.174Z,959.44
2018-04-11T10:06:27.229Z,959.43
2018-04-11T10:07:27.283Z,959.37
2018-04-11T10:08:27.356Z,959.39
2018-04-11T10:09:27.387Z,959.37
2018-04-11T10:10:27.443Z,959.35
2018-04-11T10:11:27.514Z,959.28
2018-04-11T10:12:27.547Z,959.28
2018-04-11T10:13:27.620Z,959.27
2018-04-11T10:14:27.673Z,959.24
2018-04-11T10:15:27.700Z,959.25
2018-04-11T10:16:27.757Z,959.22
2018-04-11T10:17:27.849Z,959.24
2018-04-11T10:18:27.858Z,959.20
2018-04-11T10:19:27.915Z,959.23
2018-04-11T10:20:27.960Z,959.19
2018-04-11T10:21:28.013Z,959.18
2018-04-11T10:22:28.118Z,959.17
2018-04-11T10:23:28.121Z,959.20
2018-04-11T10:24:28.172Z,959.18
2018-04-11T10:25:28.224Z,959.16
2018-04-11T10:26:28.283Z,959.17
2018-04-11T10:27:28.352Z,959.14
2018-04-11T10:28:28.382Z,959.10
2018-04-11T10:29:28.461Z,959.07
2018-04-11T10:30:28.490Z,959.05
2018-04-11T10:31:28.546Z,959.02
2018-04-11T10:32:28.597Z,958.99
2018-04-11T10:33:28.643Z,958.97
2018-04-11T10:34:28.738Z,958.97
2018-04-11T10:35:28.750Z,958.89
2018-04-11T10:36:28.806Z,958.91
2018-04-11T10:37:28.855Z,958.94
2018-04-11T10:38:28.908Z,958.89
2018-04-11T10:39:29.013Z,958.90
2018-04-11T10:40:29.032Z,958.85
2018-04-11T10:41:29.070Z,958.88
2018-04-11T10:42:29.119Z,958.91
2018-04-11T10:43:29.171Z,958.89
2018-04-11T10:44:29.253Z,958.90
2018-04-11T10:45:29.314Z,958.90
2018-04-11T10:46:29.331Z,958.84
2018-04-11T10:47:29.381Z,958.88
2018-04-11T10:48:29.435Z,958.86
2018-04-11T10:49:29.492Z,958.85
2018-04-11T10:50:29.564Z,958.82
2018-04-11T10:51:29.595Z,958.85
2018-04-11T10:52:29.645Z,958.82
2018-04-11T10:53:29.700Z,958.81
2018-04-11T10:54:29.755Z,958.78
2018-04-11T10:55:29.826Z,958.75
2018-04-11T10:56:29.855Z,958.72
2018-04-11T10:57:29.909Z,958.73
2018-04-11T10:58:29.969Z,958.73
2018-04-11T10:59:30.016Z,958.75
2018-04-11T11:00:30.097Z,958.74
2018-04-11T11:01:30.119Z,958.74
2018-04-11T11:02:30.174Z,958.70
2018-04-11T11:03:30.224Z,958.74
2018-04-11T11:04:30.283Z,958.70
2018-04-11T11:05:30.360Z,958.70
2018-04-11T11:06:30.385Z,958.70
2018-04-11T11:07:30.436Z,958.69
2018-04-11T11:08:30.490Z,958.70
2018-04-11T11:09:30.541Z,958.71
2018-04-11T11:10:30.650Z,958.72
2018-04-11T11:11:30.646Z,958.71
2018-04-11T11:12:30.701Z,958.71
2018-04-11T11:13:30.762Z,958.71
2018-04-11T11:14:30.805Z,958.68
2018-04-11T11:15:30.882Z,958.66
2018-04-11T11:16:30.911Z,958.62
2018-04-11T11:17:30.988Z,958.55
2018-04-11T11:18:31.020Z,958.54
2018-04-11T11:19:31.072Z,958.54
2018-04-11T11:20:31.125Z,958.52
2018-04-11T11:21:31.179Z,958.54
2018-04-11T11:22:31.263Z,958.49
2018-04-11T11:23:31.311Z,958.46
2018-04-11T11:24:31.343Z,958.50
2018-04-11T11:25:31.402Z,958.47
2018-04-11T11:26:31.451Z,958.49
2018-04-11T11:27:31.505Z,958.49
2018-04-11T11:28:31.584Z,958.48
2018-04-11T11:29:31.613Z,958.48
2018-04-11T11:30:31.670Z,958.46
2018-04-11T11:31:31.727Z,958.46
2018-04-11T11:32:31.778Z,958.46
2018-04-11T11:33:31.856Z,958.50
2018-04-11T11:34:31.888Z,958.46
2018-04-11T11:35:31.942Z,958.51
2018-04-11T11:36:31.997Z,958.52
2018-04-11T11:37:32.063Z,958.53
2018-04-11T11:38:32.131Z,958.49
2018-04-11T11:39:32.184Z,958.49
2018-04-11T11:40:32.216Z,958.43
2018-04-11T11:41:32.269Z,958.45
2018-04-11T11:42:32.322Z,958.38
2018-04-11T11:43:32.377Z,958.34
2018-04-11T11:44:32.472Z,958.35
2018-04-11T11:45:32.486Z,958.35
2018-04-11T11:46:32.543Z,958.37
2018-04-11T11:47:32.598Z,958.40
2018-04-11T11:48:32.653Z,958.39
2018-04-11T11:49:32.730Z,958.40
2018-04-11T11:50:32.761Z,958.39
2018-04-11T11:51:32.812Z,958.40
2018-04-11T11:52:32.886Z,958.36
2018-04-11T11:53:32.926Z,958.37
2018-04-11T11:54:33.008Z,958.37
2018-04-11T11:55:33.045Z,958.35
2018-04-11T11:56:33.087Z,958.38
2018-04-11T11:57:33.161Z,958.37
2018-04-11T11:58:33.198Z,958.41
2018-04-11T11:59:33.296Z,958.38
2018-04-11T12:00:33.309Z,958.40
2018-04-11T12:01:33.363Z,958.40
2018-04-11T12:02:33.483Z,958.37
2018-04-11T12:03:33.477Z,958.38
2018-04-11T12:04:33.933Z,958.38
2018-04-11T12:05:33.634Z,958.44
2018-04-11T12:06:33.664Z,958.38
2018-04-11T12:07:33.697Z,958.39
2018-04-11T12:08:33.753Z,958.42
2018-04-11T12:09:33.806Z,958.42
2018-04-11T12:10:33.860Z,958.35
2018-04-11T12:11:33.956Z,958.40
2018-04-11T12:12:33.977Z,958.35
2018-04-11T12:13:34.030Z,958.36
2018-04-11T12:14:34.079Z,958.35
2018-04-11T12:15:34.135Z,958.33
2018-04-11T12:16:34.230Z,958.32
2018-04-11T12:17:34.245Z,958.31
2018-04-11T12:18:34.304Z,958.27
2018-04-11T12:19:34.355Z,958.26
2018-04-11T12:20:34.409Z,958.28
2018-04-11T12:21:34.489Z,958.29
2018-04-11T12:22:34.556Z,958.30
2018-04-11T12:23:34.575Z,958.32
2018-04-11T12:24:34.633Z,958.27
2018-04-11T12:25:34.685Z,958.28
2018-04-11T12:26:34.741Z,958.26
2018-04-11T12:27:34.827Z,958.25
2018-04-11T12:28:34.878Z,958.27
2018-04-11T12:29:34.973Z,958.23
2018-04-11T12:30:34.965Z,958.23